• Join FlightAware (Why Join?)
  • Login
  • US Flag 
09:36AM EDT


 

Airport Tracker/Info


-or-


 

Live Flight TrackerFlight Track Log ✈ EJA929 ✈ 21-Sep-2013 ✈ KLIT - KPHL

Flight Track Log - Related Links

Times and Time Zones

All times are in EDT time to prevent confusion due to time zone crossing. See the EJA929 flight status page for this flight to view local times or setup timezone preferences in your user account.

Time Position Orientation Groundspeed Altitude Reporting Facility
EDT Latitude Longitude Course Direction KTS MPH feet Rate Location/Type
11:29AM 34.7392 -92.2172 82° East 155 178 1,000  Level Memphis Center
11:30AM 34.7461 -92.1567 82° East 198 228 3,300 2,700 Climbing Memphis Center
11:31AM 34.7492 -92.0833 87° East 245 282 6,100 3,240 Climbing Memphis Center
11:31AM 34.7472 -92.0883 245° Southwest 245 282 6,300 11,580 Climbing Memphis Center
11:34AM 34.7450 -91.7675 90° East 330 380 41,000 8,820 Climbing Memphis Center
11:35AM 34.7628 -91.6564 79° East 360 414 41,000 -11,040 Level Memphis Center
11:36AM 34.7931 -91.5406 72° East 365 420 19,000 -10,020 Descending Memphis Center
11:37AM 34.8297 -91.4247 69° East 365 420 21,000 1,740 Climbing Memphis Center
11:38AM 34.8619 -91.3036 72° East 371 427 22,500 1,440 Climbing Memphis Center
11:39AM 34.9025 -91.1750 69° East 393 452 23,900 1,200 Climbing Memphis Center
11:40AM 34.9431 -91.0361 70° East 421 484 24,900 960 Climbing Memphis Center
11:41AM 34.9917 -90.8767 70° East 444 511 25,900 1,020 Climbing Memphis Center
11:42AM 35.0361 -90.7275 70° East 463 533 27,000 1,020 Climbing Memphis Center
11:43AM 35.0803 -90.5678 71° East 475 547 28,000 960 Climbing Memphis Center
11:44AM 35.1283 -90.4053 70° East 490 564 29,000 960 Climbing Memphis Center
11:45AM 35.1764 -90.2403 70° East 497 572 30,000 840 Climbing Memphis Center
11:46AM 35.2261 -90.0725 70° East 515 593 30,700 840 Climbing Memphis Center
11:47AM 35.2778 -89.8967 70° East 536 617 31,700 900 Climbing Memphis Center
11:48AM 35.3228 -89.7386 71° East 545 627 32,500 900 Climbing Memphis Center
11:49AM 35.3719 -89.5600 71° East 550 633 33,500 960 Climbing Memphis Center
11:50AM 35.4206 -89.3811 72° East 550 633 34,500 1,080 Climbing Memphis Center
11:51AM 35.4733 -89.1919 71° East 567 652 35,700 1,380 Climbing Memphis Center
11:52AM 35.5275 -88.9922 72° East 561 646 37,300 1,500 Climbing Memphis Center
11:53AM 35.5775 -88.8128 71° East 561 646 38,800 1,500 Climbing Memphis Center
11:54AM 35.6231 -88.6281 73° East 561 646 40,300 1,020 Climbing Memphis Center
11:55AM 35.6747 -88.4456 71° East 561 646 40,900 300 Climbing Memphis Center
11:56AM 35.7258 -88.2525 72° East 572 658 41,000 480 Climbing Memphis Center
11:57AM 35.7725 -88.0644 73° East 577 664 41,900 900 Climbing Memphis Center
11:58AM 35.8250 -87.8736 71° East 584 672 42,900 480 Climbing Memphis Center
11:59AM 35.8733 -87.6878 72° East 579 666 42,900  Level Memphis Center
12:00PM 35.9253 -87.4964 71° East 585 673 42,900  Level Memphis Center
12:01PM 35.9750 -87.3047 72° East 585 673 42,900  Level Memphis Center
12:02PM 36.0242 -87.1106 73° East 585 673 42,900  Level Memphis Center
12:03PM 36.0733 -86.9158 73° East 585 673 42,900  Level Memphis Center
12:04PM 36.1217 -86.7161 73° East 592 681 42,900  Level Memphis Center
12:05PM 36.1847 -86.5256 68° East 597 687 42,900  Level Memphis Center
12:07PM 36.3378 -86.0633 68° East 590 679 42,900  Level Indianapolis Center
12:08PM 36.3992 -85.8706 68° East 593 682 42,900  Level Indianapolis Center
12:10PM 36.4578 -85.6825 69° East 597 687 42,900  Level Indianapolis Center
12:11PM 36.5189 -85.4906 68° East 595 685 42,900  Level Indianapolis Center
12:12PM 36.5781 -85.2967 69° East 597 687 43,000  Climbing Indianapolis Center
12:13PM 36.6381 -85.1019 69° East 600 690 43,000  Level Indianapolis Center
12:14PM 36.6975 -84.9075 69° East 597 687 43,000  Level Indianapolis Center
12:15PM 36.7558 -84.7122 70° East 600 690 43,000  Level Indianapolis Center
12:16PM 36.8206 -84.5008 69° East 603 694 43,000  Level Indianapolis Center
12:17PM 36.8789 -84.3083 69° East 595 685 43,000  Level Indianapolis Center
12:18PM 36.9369 -84.1111 70° East 599 689 43,000  Level Indianapolis Center
12:19PM 36.9964 -83.9153 69° East 602 693 43,000  Level Indianapolis Center
12:20PM 37.0547 -83.7197 69° East 598 688 43,000  Level Indianapolis Center
12:21PM 37.1128 -83.5214 70° East 600 690 43,000  Level Indianapolis Center
12:22PM 37.1797 -83.2911 70° East 599 689 43,000  Level Indianapolis Center
12:23PM 37.2367 -83.0919 70° East 600 690 43,000  Level Indianapolis Center
12:24PM 37.2939 -82.8917 70° East 600 690 43,000  Level Indianapolis Center
12:25PM 37.3503 -82.6925 70° East 600 690 43,000  Level Indianapolis Center
12:26PM 37.4067 -82.4942 70° East 599 689 43,000  Level Indianapolis Center
12:27PM 37.4614 -82.2958 71° East 598 688 43,000  Level Indianapolis Center
12:28PM 37.5167 -82.0972 71° East 599 689 43,000  Level Indianapolis Center
12:29PM 37.5714 -81.8994 71° East 597 687 43,000  Level Indianapolis Center
12:30PM 37.6247 -81.7008 71° East 597 687 43,000  Level Indianapolis Center
12:31PM 37.6853 -81.4853 70° East 598 688 43,000  Level Indianapolis Center
12:32PM 37.7356 -81.2925 72° East 597 687 43,000  Level Indianapolis Center
12:33PM 37.7814 -81.0964 73° East 598 688 43,000 -540 Level Indianapolis Center
12:34PM 37.7961 -80.8967 85° East 588 677 42,000 -1,380 Descending Indianapolis Center
12:35PM 37.8103 -80.6597 86° East 580 667 40,300 -1,740 Descending Indianapolis Center
12:36PM 37.8203 -80.5028 85° East 577 664 38,700 -1,860 Descending Washington Center
12:37PM 37.8347 -80.3011 85° East 577 664 36,800 -1,860 Descending Washington Center
12:38PM 37.8464 -80.1072 86° East 564 649 35,100 -1,800 Descending Washington Center
12:39PM 37.8606 -79.8922 85° East 559 643 33,300 -1,080 Descending Washington Center
12:40PM 37.8714 -79.7036 86° East 544 626 33,000 -180 Descending Washington Center
12:41PM 37.8839 -79.5122 85° East 544 626 33,000  Level Washington Center
12:42PM 37.8922 -79.3231 87° East 544 626 33,000 -660 Level Washington Center
12:43PM 37.9042 -79.1289 85° East 544 626 31,700 -1,440 Descending Washington Center
12:44PM 37.9244 -78.9350 82° East 550 633 30,200 -1,260 Descending Washington Center
12:45PM 37.9458 -78.7594 81° East 555 639 29,300 -600 Descending Washington Center
12:46PM 37.9694 -78.5736 81° East 555 639 29,000 -180 Descending Washington Center
12:47PM 37.9883 -78.3925 82° East 537 618 29,000  Level Washington Center
12:48PM 38.0114 -78.2089 81° East 532 612 29,000  Level Washington Center
12:49PM 38.0778 -78.0239 65° Northeast 514 592 29,000  Level Washington Center
12:50PM 38.1558 -77.8653 58° Northeast 520 598 29,000  Level Washington Center
12:51PM 38.2358 -77.7064 57° Northeast 520 598 29,000  Level Washington Center
12:52PM 38.3136 -77.5472 58° Northeast 525 604 29,000  Level Washington Center
12:53PM 38.3892 -77.3956 58° Northeast 525 604 29,000 -720 Level Washington Center
12:54PM 38.4600 -77.2542 57° Northeast 499 574 27,600 -1,440 Descending Washington Center
12:55PM 38.5264 -77.1122 59° Northeast 472 543 26,100 -1,440 Descending Washington Center
12:56PM 38.5928 -76.9783 58° Northeast 457 526 24,800 -1,080 Descending Washington Center
12:57PM 38.6589 -76.8439 58° Northeast 452 520 24,000 -1,200 Descending Washington Center
12:58PM 38.7144 -76.7011 63° Northeast 447 514 22,500 -1,680 Descending Washington Center
12:59PM 38.7447 -76.5553 75° East 426 490 20,700 -1,500 Descending Washington Center
01:00PM 38.7750 -76.4172 74° East 415 478 19,500 -1,440 Descending Washington Center
01:01PM 38.8008 -76.2814 76° East 400 460 17,900 -1,680 Descending Washington Center
01:02PM 38.8308 -76.1433 74° East 400 460 16,300 -1,500 Descending Washington Center
01:03PM 38.8564 -76.0236 75° East 390 449 15,000 -720 Descending Washington Center
01:04PM 38.8839 -75.8878 75° East 390 449 14,900 -300 Descending Washington Center
01:05PM 38.9486 -75.7839 51° Northeast 371 427 14,500 -1,440 Descending Washington Center
01:07PM 39.1167 -75.6667 28° Northeast 334 384 11,000 -1,500 Descending Philadelphia TRACON
01:08PM 39.2167 -75.6667 360° North 297 342 10,000 -600 Descending Philadelphia TRACON
01:09PM 39.3000 -75.6333 17° North 307 353 9,800 -900 Descending Philadelphia TRACON
01:10PM 39.3667 -75.5833 30° Northeast 307 353 8,300 -1,320 Descending Philadelphia TRACON
01:11PM 39.4333 -75.5000 44° Northeast 299 344 7,300 -1,260 Descending Philadelphia TRACON
01:12PM 39.4833 -75.4167 52° Northeast 300 345 5,800 -1,380 Descending Philadelphia TRACON
01:13PM 39.5500 -75.3500 38° Northeast 292 336 4,600 -960 Descending Philadelphia TRACON
01:14PM 39.6000 -75.2833 46° Northeast 287 330 4,000 -360 Descending Philadelphia TRACON
01:15PM 39.6500 -75.2167 46° Northeast 283 326 4,000  Level Philadelphia TRACON
01:16PM 39.7167 -75.2500 339° North 245 282 4,000  Level Philadelphia TRACON
01:17PM 39.7667 -75.2667 346° North 211 243 4,000  Level Philadelphia TRACON
01:18PM 39.8333 -75.3000 339° North 218 251 4,000 -420 Level Philadelphia TRACON
01:19PM 39.9000 -75.3333 339° North 204 235 3,100 -900 Descending Philadelphia TRACON
01:20PM 39.9500 -75.3500 346° North 176 203 2,100 -540 Descending Philadelphia TRACON
01:21PM 39.9833 -75.3333 21° North 190 219 2,000 -180 Descending Philadelphia TRACON
01:22PM 39.9667 -75.2833 113° Southeast 153 176 1,800 -540 Descending Philadelphia TRACON
01:23PM 39.9333 -75.2667 159° South 147 169 1,000 -780 Descending Philadelphia TRACON
01:24PM 39.9000 -75.2500 159° South 118 136 300 -660 Descending Philadelphia TRACON
01:26PM 39.8667 -75.2333 133° Southeast  Level FlightAware Approximate
01:33PM 39.8722 -75.2409 133° Southeast  Level Estimated